Time;durP1;ratioP1;P1;durP2;ratioP2;P2;SDS_P1;SDS_P2;PMS_P1;PMS_P2;Temp;Humidity;BMP_temperature;BMP_pressure;BME280_temperature;BME280_humidity;BME280_pressure;Samples;Min_cycle;Max_cycle;Signal;HPM_P1;HPM_P2
2021/01/30 00:04:48;;;;;;;2.13;1.70;;;8.90;99.90;;;;;;10477172;28;20272;-81
2021/01/30 00:09:50;;;;;;;1.60;1.50;;;8.90;99.90;;;;;;10473100;28;20651;-82
2021/01/30 00:14:54;;;;;;;1.77;1.67;;;8.80;99.90;;;;;;10452086;28;20217;-80
2021/01/30 00:19:56;;;;;;;1.93;1.70;;;8.90;99.90;;;;;;10456222;28;20407;-81
2021/01/30 00:24:58;;;;;;;1.97;1.60;;;8.80;99.90;;;;;;10452257;28;20874;-81
2021/01/30 00:30:00;;;;;;;1.80;1.70;;;8.90;99.90;;;;;;10458880;28;20290;-81
2021/01/30 00:35:03;;;;;;;2.20;1.67;;;8.90;99.90;;;;;;10458742;28;20232;-83
2021/01/30 00:40:06;;;;;;;2.93;1.43;;;8.90;99.90;;;;;;10446459;28;20711;-80
2021/01/30 00:45:11;;;;;;;1.30;1.20;;;8.90;99.90;;;;;;10449139;28;20324;-80
2021/01/30 00:50:15;;;;;;;1.90;1.43;;;8.80;99.90;;;;;;10478249;28;20293;-81
2021/01/30 00:55:20;;;;;;;1.47;1.30;;;8.70;99.90;;;;;;10464530;28;20308;-81
2021/01/30 01:00:25;;;;;;;1.73;1.30;;;8.70;99.90;;;;;;10428376;28;20232;-80
2021/01/30 01:05:30;;;;;;;1.40;1.30;;;8.70;99.90;;;;;;10472147;28;20231;-79
2021/01/30 01:10:34;;;;;;;1.33;1.23;;;8.70;99.90;;;;;;10451400;28;20622;-81
2021/01/30 01:15:36;;;;;;;2.00;1.40;;;8.70;99.90;;;;;;10465605;28;20286;-82
2021/01/30 01:20:38;;;;;;;1.67;1.40;;;8.70;99.90;;;;;;10469109;28;20204;-80
2021/01/30 01:25:40;;;;;;;1.33;1.23;;;8.60;99.90;;;;;;10472399;28;20248;-80
2021/01/30 01:30:42;;;;;;;2.17;1.40;;;8.60;99.90;;;;;;10471200;28;20607;-79
2021/01/30 01:35:44;;;;;;;2.13;1.43;;;8.60;99.90;;;;;;10494462;28;20306;-81
2021/01/30 01:40:46;;;;;;;3.50;1.50;;;8.70;99.90;;;;;;10459410;28;20201;-81
2021/01/30 01:46:00;;;;;;;1.40;1.30;;;8.70;99.90;;;;;;10491751;28;20273;-81
2021/01/30 01:51:06;;;;;;;1.50;1.40;;;8.80;99.90;;;;;;10486034;28;20619;-80
2021/01/30 01:56:14;;;;;;;2.17;1.57;;;8.80;99.90;;;;;;10494130;28;20219;-79
2021/01/30 02:01:18;;;;;;;1.97;1.53;;;8.90;99.90;;;;;;10490357;28;20203;-79
2021/01/30 02:06:21;;;;;;;1.50;1.40;;;9.00;99.90;;;;;;10493807;28;20274;-82
2021/01/30 02:11:22;;;;;;;1.20;1.20;;;9.00;99.90;;;;;;10497283;28;20192;-81
2021/01/30 02:16:35;;;;;;;1.00;1.00;;;8.90;99.90;;;;;;10496226;28;20295;-81
2021/01/30 02:22:15;;;;;;;1.10;1.10;;;8.90;99.90;;;;;;10445486;28;20251;-80
2021/01/30 02:27:46;;;;;;;2.03;1.40;;;8.90;99.90;;;;;;10437023;28;20627;-79
2021/01/30 02:33:10;;;;;;;1.00;1.00;;;8.80;99.90;;;;;;10455005;28;20555;-81
2021/01/30 02:38:18;;;;;;;1.30;1.20;;;8.80;99.90;;;;;;10474934;28;20251;-79
2021/01/30 02:43:25;;;;;;;1.20;1.10;;;8.80;99.90;;;;;;10470243;28;20254;-80
2021/01/30 02:48:31;;;;;;;1.00;1.00;;;8.80;99.90;;;;;;10477393;28;20259;-81
2021/01/30 02:53:38;;;;;;;2.20;1.00;;;8.80;99.90;;;;;;10460104;28;20542;-82
2021/01/30 02:58:44;;;;;;;0.90;0.90;;;8.70;99.90;;;;;;10483051;28;20213;-81
2021/01/30 03:03:47;;;;;;;1.20;1.10;;;8.60;99.90;;;;;;10481579;28;20279;-80
2021/01/30 03:08:59;;;;;;;1.10;1.10;;;8.60;99.90;;;;;;10463864;28;20224;-81
2021/01/30 03:14:14;;;;;;;1.37;1.23;;;8.60;99.90;;;;;;10482800;28;20193;-80
2021/01/30 03:19:20;;;;;;;3.30;1.30;;;8.50;99.90;;;;;;10465775;28;20686;-81
2021/01/30 03:24:24;;;;;;;1.00;1.00;;;8.40;99.90;;;;;;10480986;28;20221;-82
2021/01/30 03:29:25;;;;;;;1.00;1.00;;;8.50;99.90;;;;;;10462577;28;20691;-80
2021/01/30 03:34:27;;;;;;;1.33;1.23;;;8.50;99.90;;;;;;10461811;28;20299;-79
2021/01/30 03:39:30;;;;;;;1.00;1.00;;;8.50;99.90;;;;;;10461813;28;20193;-80
2021/01/30 03:44:32;;;;;;;1.40;1.17;;;8.50;99.90;;;;;;10442925;28;20933;-79
2021/01/30 03:49:33;;;;;;;1.57;1.10;;;8.50;99.90;;;;;;10475743;28;20769;-79
2021/01/30 03:54:36;;;;;;;1.27;1.17;;;8.60;99.90;;;;;;10500843;28;20305;-80
2021/01/30 03:59:37;;;;;;;1.40;1.27;;;8.60;99.90;;;;;;10484329;28;20280;-79
2021/01/30 04:04:39;;;;;;;4.33;1.33;;;8.60;99.90;;;;;;10501699;28;20285;-82
2021/01/30 04:09:42;;;;;;;1.53;1.43;;;8.60;99.90;;;;;;10502532;28;20723;-80
2021/01/30 04:14:43;;;;;;;1.10;1.10;;;8.60;99.90;;;;;;10501020;28;20216;-80
2021/01/30 04:19:45;;;;;;;1.10;1.10;;;8.50;99.90;;;;;;10499953;28;20232;-83
2021/01/30 04:24:47;;;;;;;1.30;1.20;;;8.50;99.90;;;;;;10490974;28;20472;-80
2021/01/30 04:29:49;;;;;;;2.03;1.40;;;8.50;99.90;;;;;;10502357;28;20254;-82
2021/01/30 04:34:50;;;;;;;1.50;1.40;;;8.50;99.90;;;;;;10499591;28;20212;-79
2021/01/30 04:39:53;;;;;;;5.30;1.80;;;8.50;99.90;;;;;;10499567;28;20679;-79
2021/01/30 04:44:59;;;;;;;1.20;1.10;;;8.50;99.90;;;;;;10482928;28;20601;-80
2021/01/30 04:50:07;;;;;;;2.87;1.70;;;8.50;99.90;;;;;;10483184;28;20216;-80
2021/01/30 04:55:20;;;;;;;2.73;1.53;;;8.50;99.90;;;;;;10499839;28;20623;-81
2021/01/30 05:00:38;;;;;;;1.40;1.30;;;8.60;99.90;;;;;;10483059;28;20732;-82
2021/01/30 05:05:43;;;;;;;2.00;1.60;;;8.60;99.90;;;;;;10500199;28;20295;-82
2021/01/30 05:10:51;;;;;;;1.40;1.30;;;8.60;99.90;;;;;;10499700;28;20196;-81
2021/01/30 05:15:57;;;;;;;2.27;1.40;;;8.60;99.90;;;;;;10497920;28;20206;-80
2021/01/30 05:21:05;;;;;;;1.50;1.40;;;8.60;99.90;;;;;;10488333;28;20209;-81
2021/01/30 05:26:14;;;;;;;1.83;1.70;;;8.60;99.90;;;;;;10458544;28;20217;-81
2021/01/30 05:31:29;;;;;;;1.70;1.60;;;8.60;99.90;;;;;;10461078;28;20196;-82
2021/01/30 05:36:38;;;;;;;2.77;1.57;;;8.60;99.90;;;;;;10464313;28;20255;-82
2021/01/30 05:41:53;;;;;;;3.13;1.73;;;8.60;99.90;;;;;;10463301;28;20222;-81
2021/01/30 05:46:55;;;;;;;5.80;1.90;;;8.60;99.90;;;;;;10443626;28;20229;-82
2021/01/30 05:52:03;;;;;;;2.47;1.60;;;8.50;99.90;;;;;;10461665;28;20359;-81
2021/01/30 05:57:05;;;;;;;2.83;1.70;;;8.50;99.90;;;;;;10450720;28;20217;-83
2021/01/30 06:02:13;;;;;;;4.53;1.73;;;8.60;99.90;;;;;;10452914;28;20302;-83
2021/01/30 06:07:33;;;;;;;2.10;1.90;;;8.50;99.90;;;;;;10458782;28;20215;-80
2021/01/30 06:12:36;;;;;;;3.87;1.90;;;8.50;99.90;;;;;;10465359;28;20702;-83
2021/01/30 06:17:38;;;;;;;1.90;1.67;;;8.50;99.90;;;;;;10458996;28;20287;-80
2021/01/30 06:22:39;;;;;;;6.50;2.03;;;8.50;99.90;;;;;;10458927;28;20224;-82
2021/01/30 06:27:43;;;;;;;5.17;2.00;;;8.60;99.90;;;;;;10461384;28;20228;-83
2021/01/30 06:32:46;;;;;;;4.00;2.37;;;8.50;99.90;;;;;;10468602;28;20216;-83
2021/01/30 06:37:50;;;;;;;7.47;2.40;;;8.50;99.90;;;;;;10453034;28;20218;-83
2021/01/30 06:42:55;;;;;;;4.90;1.60;;;8.50;99.90;;;;;;10471214;28;20223;-83
2021/01/30 06:47:57;;;;;;;3.73;2.20;;;8.60;99.90;;;;;;10470911;28;20308;-83
2021/01/30 06:53:17;;;;;;;3.10;1.87;;;8.60;99.90;;;;;;10474233;28;20243;-81
2021/01/30 06:58:29;;;;;;;4.07;2.20;;;8.50;99.90;;;;;;10494303;28;20209;-81
2021/01/30 07:03:43;;;;;;;5.63;2.30;;;8.50;99.90;;;;;;10455228;28;20668;-82
2021/01/30 07:09:03;;;;;;;6.87;2.03;;;8.60;99.90;;;;;;10448486;28;20236;-83
2021/01/30 07:14:19;;;;;;;5.23;2.53;;;8.60;99.90;;;;;;10461919;28;20569;-81
2021/01/30 07:19:34;;;;;;;4.27;2.20;;;8.60;99.90;;;;;;10464370;28;20190;-81
2021/01/30 07:24:42;;;;;;;6.63;2.70;;;8.60;99.90;;;;;;10464864;28;20224;-82
2021/01/30 07:29:50;;;;;;;3.97;2.43;;;8.70;99.90;;;;;;10463251;28;20217;-82
2021/01/30 07:35:18;;;;;;;5.87;2.37;;;8.70;99.90;;;;;;10464147;28;20221;-81
2021/01/30 07:40:22;;;;;;;3.80;1.87;;;8.70;99.90;;;;;;10465362;28;20243;-83
2021/01/30 07:45:28;;;;;;;8.90;2.80;;;8.80;99.90;;;;;;10465732;28;20316;-80
2021/01/30 07:50:34;;;;;;;4.50;2.80;;;8.70;99.90;;;;;;10452883;28;20196;-82
2021/01/30 07:55:36;;;;;;;5.57;2.50;;;8.70;99.90;;;;;;10529148;28;20230;-83
2021/01/30 08:00:54;;;;;;;5.13;1.80;;;8.70;99.90;;;;;;10545669;28;20198;-81
2021/01/30 08:06:17;;;;;;;6.03;2.10;;;8.80;99.90;;;;;;10549477;28;20207;-81
2021/01/30 08:11:24;;;;;;;3.67;2.20;;;8.90;99.90;;;;;;10547386;28;20671;-82
2021/01/30 08:16:37;;;;;;;4.77;2.37;;;8.90;99.90;;;;;;10546271;28;20208;-82
2021/01/30 08:21:43;;;;;;;3.27;2.23;;;9.00;99.90;;;;;;10510779;28;20209;-81
2021/01/30 08:26:51;;;;;;;4.00;2.40;;;9.10;99.90;;;;;;10459678;28;20689;-82
2021/01/30 08:31:57;;;;;;;6.20;2.53;;;9.10;99.90;;;;;;10460185;28;20263;-82
2021/01/30 08:37:01;;;;;;;6.20;2.87;;;9.10;99.90;;;;;;10444101;28;20216;-81
2021/01/30 08:42:07;;;;;;;5.60;2.50;;;9.20;99.90;;;;;;10462413;28;20220;-83
2021/01/30 08:47:18;;;;;;;5.80;2.30;;;9.10;99.90;;;;;;10441220;28;20233;-82
2021/01/30 08:52:32;;;;;;;4.47;2.40;;;9.10;99.90;;;;;;10456560;28;20645;-81
2021/01/30 08:57:44;;;;;;;5.60;2.50;;;9.10;99.90;;;;;;10460278;28;20297;-82
2021/01/30 09:02:51;;;;;;;5.57;2.70;;;9.20;99.90;;;;;;10469970;28;20255;-81
2021/01/30 09:07:54;;;;;;;4.23;2.07;;;9.20;99.90;;;;;;10469314;28;20227;-84
2021/01/30 09:12:58;;;;;;;8.27;3.00;;;9.10;99.90;;;;;;10459738;28;20214;-83
2021/01/30 09:18:02;;;;;;;5.07;2.70;;;9.20;99.90;;;;;;10470539;28;20652;-84
2021/01/30 09:23:21;;;;;;;5.10;2.50;;;9.20;99.90;;;;;;10473621;28;20258;-81
2021/01/30 09:28:25;;;;;;;6.40;2.63;;;9.30;99.90;;;;;;10477431;28;20592;-82
2021/01/30 09:33:31;;;;;;;7.00;3.13;;;9.40;99.90;;;;;;10475740;28;20205;-83
2021/01/30 09:38:35;;;;;;;3.37;3.07;;;9.40;99.90;;;;;;10469485;28;20209;-84
2021/01/30 09:43:37;;;;;;;5.93;2.20;;;9.40;99.90;;;;;;10482307;28;20201;-83
2021/01/30 09:48:42;;;;;;;5.80;2.60;;;9.40;99.90;;;;;;10498970;28;20296;-84
2021/01/30 09:53:51;;;;;;;5.50;3.40;;;9.50;99.90;;;;;;10499665;28;20668;-84
2021/01/30 09:58:56;;;;;;;5.03;2.40;;;9.60;99.90;;;;;;10510089;28;20291;-82
2021/01/30 10:04:00;;;;;;;6.80;2.97;;;9.60;99.90;;;;;;10506475;28;20270;-85
2021/01/30 10:09:11;;;;;;;4.83;2.93;;;9.70;99.90;;;;;;10489696;28;20220;-84
2021/01/30 10:14:15;;;;;;;7.00;3.00;;;9.80;99.90;;;;;;10470262;28;20193;-85
2021/01/30 10:19:23;;;;;;;4.40;2.77;;;9.80;99.90;;;;;;10492350;28;20193;-85
2021/01/30 10:24:27;;;;;;;5.23;2.70;;;10.00;99.90;;;;;;10476778;28;20231;-85
2021/01/30 10:29:29;;;;;;;6.13;3.13;;;10.00;99.90;;;;;;10457276;28;20639;-84
2021/01/30 10:34:36;;;;;;;4.80;2.27;;;10.00;99.90;;;;;;10460311;28;20232;-85
2021/01/30 10:39:42;;;;;;;3.40;2.20;;;10.10;99.90;;;;;;10472730;28;20258;-84
2021/01/30 10:44:47;;;;;;;3.30;2.10;;;10.10;99.90;;;;;;10506361;28;20714;-85
2021/01/30 10:49:49;;;;;;;5.00;2.23;;;10.10;99.90;;;;;;10467238;28;20321;-84
2021/01/30 10:55:17;;;;;;;2.70;1.90;;;10.10;99.90;;;;;;10488045;28;20213;-85
2021/01/30 11:00:27;;;;;;;3.03;2.10;;;10.10;99.90;;;;;;10483405;28;20288;-85
2021/01/30 11:05:30;;;;;;;7.63;2.77;;;10.20;99.90;;;;;;10465600;28;20222;-85
2021/01/30 11:10:42;;;;;;;4.60;2.83;;;10.20;99.90;;;;;;10485194;28;20212;-85
2021/01/30 11:15:44;;;;;;;7.70;2.37;;;10.20;99.90;;;;;;10485905;28;20810;-85
2021/01/30 11:20:49;;;;;;;4.07;2.50;;;10.20;99.90;;;;;;10474829;28;20231;-86
2021/01/30 11:25:50;;;;;;;5.30;2.57;;;10.20;99.90;;;;;;10459092;22;20664;-80
2021/01/30 11:30:52;;;;;;;5.57;3.00;;;10.30;99.90;;;;;;10428088;28;20347;-79
2021/01/30 11:35:56;;;;;;;3.57;2.50;;;10.30;99.90;;;;;;10462299;28;20209;-81
2021/01/30 11:41:00;;;;;;;5.47;2.40;;;10.30;99.90;;;;;;10461582;28;20280;-80
2021/01/30 11:46:01;;;;;;;7.30;2.73;;;10.20;99.90;;;;;;10459148;28;20641;-79
2021/01/30 11:51:05;;;;;;;5.13;2.70;;;10.20;99.90;;;;;;10462389;28;20280;-80
2021/01/30 11:56:06;;;;;;;2.77;1.83;;;10.30;99.90;;;;;;10455018;28;20236;-80
2021/01/30 12:01:11;;;;;;;5.77;2.70;;;10.30;99.90;;;;;;10470236;28;20209;-79
2021/01/30 12:06:13;;;;;;;3.80;2.53;;;10.30;99.90;;;;;;10459934;28;20744;-81
2021/01/30 12:11:15;;;;;;;5.23;2.17;;;10.20;99.90;;;;;;10453400;28;20743;-81
2021/01/30 12:16:22;;;;;;;4.30;2.10;;;10.10;99.90;;;;;;10431901;28;20623;-81
2021/01/30 12:21:27;;;;;;;3.83;2.10;;;9.90;99.90;;;;;;10435386;28;20201;-81
2021/01/30 12:33:20;;;;;;;4.70;2.43;;;9.50;99.90;;;;;;10418446;28;20273;-81
2021/01/30 12:38:29;;;;;;;4.30;1.97;;;9.30;99.90;;;;;;10473813;28;20350;-82
2021/01/30 12:43:32;;;;;;;6.30;2.67;;;9.30;99.90;;;;;;10486289;28;20205;-81
2021/01/30 12:48:35;;;;;;;4.83;2.93;;;9.20;99.90;;;;;;10487883;28;20311;-81
2021/01/30 12:53:38;;;;;;;4.80;2.53;;;9.20;99.90;;;;;;10470387;28;20207;-81
2021/01/30 12:58:41;;;;;;;2.43;1.90;;;9.20;99.90;;;;;;10472624;28;20221;-81
2021/01/30 13:03:43;;;;;;;5.67;3.20;;;9.20;99.90;;;;;;10470696;28;20216;-80
2021/01/30 13:08:45;;;;;;;3.77;3.40;;;9.20;99.90;;;;;;10477343;28;20221;-82
2021/01/30 13:13:47;;;;;;;6.53;4.10;;;9.20;99.90;;;;;;10503916;28;20251;-80
2021/01/30 13:18:50;;;;;;;5.80;4.00;;;9.10;99.90;;;;;;10514027;28;20220;-81
2021/01/30 13:23:52;;;;;;;5.10;4.60;;;9.10;99.90;;;;;;10491068;28;20697;-81
2021/01/30 13:28:54;;;;;;;5.30;4.57;;;9.10;99.90;;;;;;10485019;28;20216;-81
2021/01/30 13:33:56;;;;;;;4.87;4.57;;;9.00;99.90;;;;;;10485184;28;20197;-80
2021/01/30 13:39:00;;;;;;;5.70;5.07;;;9.00;99.90;;;;;;10478863;28;20220;-79
2021/01/30 13:44:02;;;;;;;7.47;6.00;;;8.90;99.90;;;;;;10485860;28;20203;-82
2021/01/30 13:49:05;;;;;;;5.00;4.17;;;8.80;99.90;;;;;;10476778;28;20246;-80
2021/01/30 13:54:08;;;;;;;6.00;5.33;;;8.80;99.90;;;;;;10490877;28;20211;-81
2021/01/30 13:59:10;;;;;;;5.03;4.63;;;8.80;99.90;;;;;;10496986;28;20319;-80
2021/01/30 14:04:11;;;;;;;5.37;4.97;;;8.80;99.90;;;;;;10482727;28;20200;-81
2021/01/30 14:09:14;;;;;;;2.70;2.50;;;8.80;99.90;;;;;;10528282;28;20239;-81
2021/01/30 14:14:16;;;;;;;4.40;4.20;;;8.80;99.90;;;;;;10531209;28;20673;-80
2021/01/30 14:19:18;;;;;;;4.33;3.93;;;8.80;99.90;;;;;;10528860;28;20762;-81
2021/01/30 14:24:20;;;;;;;3.90;3.60;;;8.80;99.90;;;;;;10487609;28;20208;-82
2021/01/30 14:29:22;;;;;;;4.57;4.17;;;8.80;99.90;;;;;;10493169;28;20333;-80
2021/01/30 14:34:24;;;;;;;4.80;4.20;;;8.80;99.90;;;;;;10510250;28;20303;-81
2021/01/30 14:39:26;;;;;;;4.50;4.10;;;8.70;99.90;;;;;;10527359;28;20269;-82
2021/01/30 14:44:28;;;;;;;6.87;4.43;;;8.70;99.90;;;;;;10509619;28;20236;-81
2021/01/30 14:49:30;;;;;;;3.63;3.33;;;8.70;99.90;;;;;;10524254;28;20306;-82
2021/01/30 14:54:32;;;;;;;5.90;4.10;;;8.60;99.90;;;;;;10504272;28;20762;-81
2021/01/30 14:59:34;;;;;;;6.67;4.50;;;8.50;99.90;;;;;;10535017;28;20835;-81
2021/01/30 15:04:38;;;;;;;3.40;3.20;;;8.40;99.90;;;;;;10534653;28;20204;-82
2021/01/30 15:09:41;;;;;;;5.80;4.23;;;8.40;99.90;;;;;;10493772;28;20605;-81
2021/01/30 15:14:43;;;;;;;5.50;5.10;;;8.30;99.90;;;;;;10491653;28;20607;-82
2021/01/30 15:19:44;;;;;;;5.40;5.07;;;8.30;99.90;;;;;;10482792;28;20211;-82
2021/01/30 15:24:51;;;;;;;5.33;4.93;;;8.20;99.90;;;;;;10495872;28;20257;-82
2021/01/30 15:29:53;;;;;;;6.40;5.07;;;8.10;99.90;;;;;;10499014;28;20885;-83
2021/01/30 15:34:55;;;;;;;5.07;4.63;;;8.10;99.90;;;;;;10529746;28;20220;-81
2021/01/30 15:39:57;;;;;;;5.93;5.47;;;8.10;99.90;;;;;;10525700;28;20215;-83
2021/01/30 15:44:59;;;;;;;5.50;5.10;;;8.10;99.90;;;;;;10532231;28;20703;-83
2021/01/30 15:50:01;;;;;;;5.03;4.73;;;8.00;99.90;;;;;;10524856;28;20220;-81
2021/01/30 15:55:04;;;;;;;5.77;5.27;;;7.90;99.90;;;;;;10490291;28;20221;-82
2021/01/30 16:00:07;;;;;;;5.13;4.73;;;7.70;99.90;;;;;;10516953;28;20196;-81
2021/01/30 16:05:10;;;;;;;5.30;5.10;;;7.50;99.90;;;;;;10515712;28;20251;-81
2021/01/30 16:10:14;;;;;;;4.50;4.20;;;7.50;99.90;;;;;;10530525;28;20267;-82
2021/01/30 16:15:20;;;;;;;21.60;19.60;;;7.50;99.90;;;;;;10529705;28;20223;-81
2021/01/30 16:20:28;;;;;;;31.77;28.90;;;7.40;99.90;;;;;;10484798;28;20303;-82
2021/01/30 16:25:31;;;;;;;13.90;12.90;;;7.40;99.90;;;;;;10468270;28;20212;-82
2021/01/30 16:30:33;;;;;;;7.30;6.80;;;7.40;99.90;;;;;;10504902;28;20239;-81
2021/01/30 16:35:35;;;;;;;8.87;7.50;;;7.50;99.90;;;;;;10490748;28;20243;-81
2021/01/30 16:40:37;;;;;;;7.20;6.70;;;7.50;99.90;;;;;;10506152;28;20661;-81
2021/01/30 16:45:40;;;;;;;6.67;6.27;;;7.50;99.90;;;;;;10523861;28;20239;-82
2021/01/30 16:50:42;;;;;;;6.70;6.23;;;7.60;99.90;;;;;;10499317;28;20958;-82
2021/01/30 16:56:09;;;;;;;7.57;6.97;;;7.60;99.90;;;;;;10475403;28;20608;-82
2021/01/30 17:01:12;;;;;;;6.20;5.80;;;7.70;99.90;;;;;;10532303;28;20199;-82
2021/01/30 17:06:13;;;;;;;5.30;4.90;;;7.70;99.90;;;;;;10483901;28;20247;-81
2021/01/30 17:11:16;;;;;;;4.70;4.30;;;7.70;99.90;;;;;;10512205;28;20288;-81
2021/01/30 17:16:18;;;;;;;5.20;4.90;;;7.60;99.90;;;;;;10499133;28;20224;-81
2021/01/30 17:21:19;;;;;;;5.80;5.50;;;7.50;99.90;;;;;;10485514;28;20287;-80
2021/01/30 17:26:23;;;;;;;5.70;5.40;;;7.50;99.90;;;;;;10505478;22;20228;-82
2021/01/30 17:31:24;;;;;;;7.20;6.70;;;7.50;99.90;;;;;;10439775;28;20659;-82
2021/01/30 17:36:26;;;;;;;6.73;6.13;;;7.50;99.90;;;;;;10410835;28;20225;-82
2021/01/30 17:41:28;;;;;;;7.17;6.60;;;7.60;99.90;;;;;;10407875;28;20216;-81
2021/01/30 17:46:30;;;;;;;7.77;7.17;;;7.60;99.90;;;;;;10387757;28;20221;-81
2021/01/30 17:51:32;;;;;;;9.70;8.90;;;7.60;99.90;;;;;;10404965;28;20577;-82
2021/01/30 17:56:35;;;;;;;9.87;9.13;;;7.70;99.90;;;;;;10390682;28;20226;-83
2021/01/30 18:01:37;;;;;;;8.83;8.23;;;7.70;99.90;;;;;;10407554;28;20204;-82
2021/01/30 18:06:39;;;;;;;10.10;9.30;;;7.70;99.90;;;;;;10389801;28;20221;-83
2021/01/30 18:11:42;;;;;;;9.47;8.77;;;7.70;99.90;;;;;;10389999;28;20772;-82
2021/01/30 18:16:44;;;;;;;10.67;9.70;;;7.80;99.90;;;;;;10387366;28;20228;-81
2021/01/30 18:22:03;;;;;;;10.00;9.30;;;7.70;99.90;;;;;;10396003;28;20221;-83
2021/01/30 18:27:16;;;;;;;11.80;10.90;;;7.70;99.90;;;;;;10410908;28;20305;-84
2021/01/30 18:32:22;;;;;;;12.53;11.33;;;7.70;99.90;;;;;;10411427;28;20317;-84
2021/01/30 18:37:30;;;;;;;12.93;11.77;;;7.70;99.90;;;;;;10405619;28;20221;-83
2021/01/30 18:42:40;;;;;;;8.40;7.70;;;7.70;99.90;;;;;;10401425;28;20194;-81
2021/01/30 18:47:58;;;;;;;11.30;10.43;;;7.80;99.90;;;;;;10469963;23;20266;-83
2021/01/30 18:53:03;;;;;;;11.43;10.63;;;7.70;99.90;;;;;;10518675;28;20200;-81
2021/01/30 18:58:18;;;;;;;12.37;11.40;;;7.80;99.90;;;;;;10489259;28;20247;-85
2021/01/30 19:03:22;;;;;;;10.63;9.83;;;7.80;99.90;;;;;;10473348;28;20200;-83
2021/01/30 19:08:33;;;;;;;12.27;11.27;;;7.80;99.90;;;;;;10491220;28;20307;-81
2021/01/30 19:13:41;;;;;;;14.00;12.80;;;7.70;99.90;;;;;;10507621;28;20200;-81
2021/01/30 19:18:44;;;;;;;12.97;11.97;;;7.70;99.90;;;;;;10486332;23;20229;-82
2021/01/30 19:23:49;;;;;;;11.77;10.87;;;7.70;99.90;;;;;;10463387;28;20201;-81
2021/01/30 19:28:54;;;;;;;13.67;12.60;;;7.70;99.90;;;;;;10413006;28;20689;-81
2021/01/30 19:33:59;;;;;;;12.33;11.33;;;7.60;99.90;;;;;;10418839;28;20576;-81
2021/01/30 19:39:02;;;;;;;11.50;10.67;;;7.70;99.90;;;;;;10410719;28;20225;-81
2021/01/30 19:44:16;;;;;;;11.10;10.20;;;7.70;99.90;;;;;;10417136;28;20232;-81
2021/01/30 19:49:43;;;;;;;10.50;9.77;;;7.70;99.90;;;;;;10433928;28;20232;-81
2021/01/30 19:54:45;;;;;;;11.83;11.03;;;7.70;99.90;;;;;;10395277;28;20236;-80
2021/01/30 19:59:48;;;;;;;10.63;9.83;;;7.70;99.90;;;;;;10423949;28;20705;-81
2021/01/30 20:04:52;;;;;;;11.23;10.33;;;7.70;99.90;;;;;;10423641;28;20244;-81
2021/01/30 20:09:54;;;;;;;9.73;9.10;;;7.70;99.90;;;;;;10422038;28;20642;-81
2021/01/30 20:14:56;;;;;;;10.60;9.93;;;7.60;99.90;;;;;;10424303;28;20264;-81
2021/01/30 20:20:01;;;;;;;11.57;10.70;;;7.60;99.90;;;;;;10415733;28;20201;-81
2021/01/30 20:25:05;;;;;;;13.30;12.30;;;7.60;99.90;;;;;;10421147;28;20679;-81
2021/01/30 20:30:13;;;;;;;15.10;13.83;;;7.60;99.90;;;;;;10407372;28;20225;-81
2021/01/30 20:35:20;;;;;;;16.20;14.90;;;7.50;99.90;;;;;;10424014;28;20213;-81
2021/01/30 20:40:25;;;;;;;16.10;14.80;;;7.50;99.90;;;;;;10417210;28;20193;-81
2021/01/30 20:45:29;;;;;;;15.33;14.03;;;7.50;99.90;;;;;;10401829;28;20222;-81
2021/01/30 20:50:32;;;;;;;14.30;13.07;;;7.40;99.90;;;;;;10419913;28;20255;-81
2021/01/30 20:55:36;;;;;;;13.40;12.40;;;7.40;99.90;;;;;;10417819;28;20275;-81
2021/01/30 21:00:39;;;;;;;13.70;12.60;;;7.30;99.90;;;;;;10401619;28;20189;-82
2021/01/30 21:05:41;;;;;;;11.67;10.87;;;7.30;99.90;;;;;;10426397;28;20218;-82
2021/01/30 21:10:43;;;;;;;11.50;10.60;;;7.30;99.90;;;;;;10414884;28;20669;-81
2021/01/30 21:15:45;;;;;;;11.77;10.97;;;7.20;99.90;;;;;;10429345;28;20229;-79
2021/01/30 21:20:47;;;;;;;10.50;9.80;;;7.10;99.90;;;;;;10396559;28;20290;-80
2021/01/30 21:25:50;;;;;;;11.03;10.33;;;7.00;99.90;;;;;;10398052;28;20635;-82
2021/01/30 21:30:53;;;;;;;12.67;11.77;;;6.90;99.90;;;;;;10427496;28;20243;-81
2021/01/30 21:35:57;;;;;;;11.77;10.80;;;6.90;99.90;;;;;;10423371;28;20213;-82
2021/01/30 21:40:59;;;;;;;11.43;10.63;;;6.90;99.90;;;;;;10413542;28;20190;-83
2021/01/30 21:46:05;;;;;;;11.30;10.50;;;6.80;99.90;;;;;;10412656;28;20221;-81
2021/01/30 21:51:08;;;;;;;11.97;11.17;;;6.80;99.90;;;;;;10432412;28;20329;-81
2021/01/30 21:56:10;;;;;;;11.50;10.80;;;6.80;99.90;;;;;;10431976;28;20726;-82
2021/01/30 22:01:13;;;;;;;11.93;11.17;;;6.80;99.90;;;;;;10447274;28;20283;-80
2021/01/30 22:06:14;;;;;;;12.20;11.30;;;6.70;99.90;;;;;;10410871;28;20221;-82
2021/01/30 22:11:18;;;;;;;10.80;10.10;;;6.70;99.90;;;;;;10421351;28;20224;-82
2021/01/30 22:16:24;;;;;;;10.63;9.93;;;6.60;99.90;;;;;;10409297;28;20328;-83
2021/01/30 22:21:28;;;;;;;11.10;10.40;;;6.60;99.90;;;;;;10411988;28;20262;-82
2021/01/30 22:26:31;;;;;;;11.80;11.03;;;6.60;99.90;;;;;;10406148;28;20218;-81
2021/01/30 22:31:34;;;;;;;11.63;10.83;;;6.50;99.90;;;;;;10403844;28;20690;-82
2021/01/30 22:36:36;;;;;;;11.13;10.43;;;6.50;99.90;;;;;;10387810;28;20225;-81
2021/01/30 22:41:38;;;;;;;11.13;10.40;;;6.40;99.90;;;;;;10388686;28;20193;-82
2021/01/30 22:46:40;;;;;;;11.93;10.97;;;6.40;99.90;;;;;;10409651;28;20249;-81
2021/01/30 22:51:48;;;;;;;11.77;10.97;;;6.40;99.90;;;;;;10406608;28;20229;-82
2021/01/30 22:56:57;;;;;;;12.20;11.40;;;6.40;99.90;;;;;;10391006;28;20275;-80
2021/01/30 23:02:06;;;;;;;11.07;10.37;;;6.30;99.90;;;;;;10419713;28;20207;-81
2021/01/30 23:07:11;;;;;;;12.07;11.23;;;6.30;99.90;;;;;;10390272;28;20220;-81
2021/01/30 23:12:13;;;;;;;12.07;11.27;;;6.20;99.90;;;;;;10408262;28;20213;-81
2021/01/30 23:17:15;;;;;;;11.80;11.07;;;6.20;99.90;;;;;;10407240;28;20611;-81
2021/01/30 23:22:17;;;;;;;12.07;11.27;;;6.20;99.90;;;;;;10398164;28;20233;-81
2021/01/30 23:27:19;;;;;;;11.93;11.20;;;6.20;99.90;;;;;;10456517;22;20282;-80
2021/01/30 23:32:21;;;;;;;12.90;12.00;;;6.10;99.90;;;;;;10487312;28;20204;-81
2021/01/30 23:37:23;;;;;;;12.70;11.80;;;6.10;99.90;;;;;;10454657;28;20242;-79
2021/01/30 23:42:24;;;;;;;11.33;10.60;;;6.10;99.90;;;;;;10437031;28;20209;-79
2021/01/30 23:47:27;;;;;;;12.17;11.37;;;6.10;99.90;;;;;;10447870;28;20307;-79
2021/01/30 23:52:29;;;;;;;11.80;11.00;;;6.10;99.90;;;;;;10442673;28;20240;-79
2021/01/30 23:57:30;;;;;;;11.10;10.37;;;6.10;99.90;;;;;;10430423;28;20224;-80
